sensor_id;sensor_type;location;lat;lon;timestamp;temperature;humidity
22678;DHT22;26259;50.214;18.620;2022-09-09T00:01:41;15.60;99.90
22678;DHT22;26259;50.214;18.620;2022-09-09T00:11:48;15.20;99.90
22678;DHT22;26259;50.214;18.620;2022-09-09T00:14:48;15.10;99.90
22678;DHT22;26259;50.214;18.620;2022-09-09T00:22:38;15.00;99.90
22678;DHT22;26259;50.214;18.620;2022-09-09T00:25:16;14.90;99.90
22678;DHT22;26259;50.214;18.620;2022-09-09T00:27:47;14.80;99.90
22678;DHT22;26259;50.214;18.620;2022-09-09T00:30:25;14.80;99.90
22678;DHT22;26259;50.214;18.620;2022-09-09T00:33:03;14.70;99.90
22678;DHT22;26259;50.214;18.620;2022-09-09T00:35:40;14.60;99.90
22678;DHT22;26259;50.214;18.620;2022-09-09T00:38:19;14.60;99.90
22678;DHT22;26259;50.214;18.620;2022-09-09T00:40:52;14.50;99.90
22678;DHT22;26259;50.214;18.620;2022-09-09T00:43:29;14.50;99.90
22678;DHT22;26259;50.214;18.620;2022-09-09T00:51:47;14.40;99.90
22678;DHT22;26259;50.214;18.620;2022-09-09T00:59:47;14.40;99.90
22678;DHT22;26259;50.214;18.620;2022-09-09T01:02:39;14.20;99.90
22678;DHT22;26259;50.214;18.620;2022-09-09T01:05:34;14.30;99.90
22678;DHT22;26259;50.214;18.620;2022-09-09T01:08:03;14.20;99.90
22678;DHT22;26259;50.214;18.620;2022-09-09T01:10:52;14.10;99.90
22678;DHT22;26259;50.214;18.620;2022-09-09T01:13:30;14.10;99.90
22678;DHT22;26259;50.214;18.620;2022-09-09T01:16:00;14.20;99.90
22678;DHT22;26259;50.214;18.620;2022-09-09T01:18:49;14.20;99.90
22678;DHT22;26259;50.214;18.620;2022-09-09T01:21:49;14.10;99.90
22678;DHT22;26259;50.214;18.620;2022-09-09T01:24:22;14.10;99.90
22678;DHT22;26259;50.214;18.620;2022-09-09T01:26:52;14.10;99.90
22678;DHT22;26259;50.214;18.620;2022-09-09T01:29:21;14.00;99.90
22678;DHT22;26259;50.214;18.620;2022-09-09T01:31:59;14.00;99.90
22678;DHT22;26259;50.214;18.620;2022-09-09T01:34:29;14.00;99.90
22678;DHT22;26259;50.214;18.620;2022-09-09T01:39:30;14.10;99.90
22678;DHT22;26259;50.214;18.620;2022-09-09T01:41:57;14.20;99.90
22678;DHT22;26259;50.214;18.620;2022-09-09T01:44:24;14.10;99.90
22678;DHT22;26259;50.214;18.620;2022-09-09T01:46:50;14.10;99.90
22678;DHT22;26259;50.214;18.620;2022-09-09T01:49:16;14.00;99.90
22678;DHT22;26259;50.214;18.620;2022-09-09T01:51:43;14.00;99.90
22678;DHT22;26259;50.214;18.620;2022-09-09T01:54:10;14.00;99.90
22678;DHT22;26259;50.214;18.620;2022-09-09T01:56:44;14.00;99.90
22678;DHT22;26259;50.214;18.620;2022-09-09T02:02:09;14.00;99.90
22678;DHT22;26259;50.214;18.620;2022-09-09T02:04:39;13.90;99.90
22678;DHT22;26259;50.214;18.620;2022-09-09T02:07:32;14.00;99.90
22678;DHT22;26259;50.214;18.620;2022-09-09T02:10:01;14.00;99.90
22678;DHT22;26259;50.214;18.620;2022-09-09T02:12:28;14.10;99.90
22678;DHT22;26259;50.214;18.620;2022-09-09T02:15:00;14.10;99.90
22678;DHT22;26259;50.214;18.620;2022-09-09T02:17:32;14.10;99.90
22678;DHT22;26259;50.214;18.620;2022-09-09T02:20:08;14.20;99.90
22678;DHT22;26259;50.214;18.620;2022-09-09T02:22:35;14.20;99.90
22678;DHT22;26259;50.214;18.620;2022-09-09T02:25:07;14.20;99.90
22678;DHT22;26259;50.214;18.620;2022-09-09T02:27:34;14.20;99.90
22678;DHT22;26259;50.214;18.620;2022-09-09T02:30:01;14.10;99.90
22678;DHT22;26259;50.214;18.620;2022-09-09T02:32:29;14.10;99.90
22678;DHT22;26259;50.214;18.620;2022-09-09T02:35:02;14.10;99.90
22678;DHT22;26259;50.214;18.620;2022-09-09T02:37:33;14.10;99.90
22678;DHT22;26259;50.214;18.620;2022-09-09T02:40:05;14.10;99.90
22678;DHT22;26259;50.214;18.620;2022-09-09T02:42:31;14.10;99.90
22678;DHT22;26259;50.214;18.620;2022-09-09T02:44:57;14.10;99.90
22678;DHT22;26259;50.214;18.620;2022-09-09T02:47:35;14.00;99.90
22678;DHT22;26259;50.214;18.620;2022-09-09T02:50:15;13.90;99.90
22678;DHT22;26259;50.214;18.620;2022-09-09T02:53:06;13.90;99.90
22678;DHT22;26259;50.214;18.620;2022-09-09T02:55:37;13.90;99.90
22678;DHT22;26259;50.214;18.620;2022-09-09T02:58:05;13.70;99.90
22678;DHT22;26259;50.214;18.620;2022-09-09T03:00:33;13.70;99.90
22678;DHT22;26259;50.214;18.620;2022-09-09T03:03:02;13.70;99.90
22678;DHT22;26259;50.214;18.620;2022-09-09T03:05:28;13.60;99.90
22678;DHT22;26259;50.214;18.620;2022-09-09T03:07:54;13.50;99.90
22678;DHT22;26259;50.214;18.620;2022-09-09T03:10:19;13.50;99.90
22678;DHT22;26259;50.214;18.620;2022-09-09T03:12:45;13.50;99.90
22678;DHT22;26259;50.214;18.620;2022-09-09T03:15:11;13.40;99.90
22678;DHT22;26259;50.214;18.620;2022-09-09T03:17:36;13.30;99.90
22678;DHT22;26259;50.214;18.620;2022-09-09T03:20:03;13.20;99.90
22678;DHT22;26259;50.214;18.620;2022-09-09T03:22:29;13.20;99.90
22678;DHT22;26259;50.214;18.620;2022-09-09T03:24:54;13.20;99.90
22678;DHT22;26259;50.214;18.620;2022-09-09T03:27:20;13.10;99.90
22678;DHT22;26259;50.214;18.620;2022-09-09T03:29:46;13.00;99.90
22678;DHT22;26259;50.214;18.620;2022-09-09T03:32:12;13.00;99.90
22678;DHT22;26259;50.214;18.620;2022-09-09T03:34:38;13.00;99.90
22678;DHT22;26259;50.214;18.620;2022-09-09T03:37:05;13.00;99.90
22678;DHT22;26259;50.214;18.620;2022-09-09T03:39:31;13.00;99.90
22678;DHT22;26259;50.214;18.620;2022-09-09T03:41:57;12.90;99.90
22678;DHT22;26259;50.214;18.620;2022-09-09T03:44:23;13.00;99.90
22678;DHT22;26259;50.214;18.620;2022-09-09T03:46:48;13.10;99.90
22678;DHT22;26259;50.214;18.620;2022-09-09T03:49:14;13.10;99.90
22678;DHT22;26259;50.214;18.620;2022-09-09T03:51:40;13.10;99.90
22678;DHT22;26259;50.214;18.620;2022-09-09T03:54:06;13.10;99.90
22678;DHT22;26259;50.214;18.620;2022-09-09T03:56:34;13.10;99.90
22678;DHT22;26259;50.214;18.620;2022-09-09T03:58:59;13.10;99.90
22678;DHT22;26259;50.214;18.620;2022-09-09T04:01:25;13.00;99.90
22678;DHT22;26259;50.214;18.620;2022-09-09T04:03:51;13.00;99.90
22678;DHT22;26259;50.214;18.620;2022-09-09T04:06:18;13.00;99.90
22678;DHT22;26259;50.214;18.620;2022-09-09T04:08:44;12.90;99.90
22678;DHT22;26259;50.214;18.620;2022-09-09T04:11:10;12.90;99.90
22678;DHT22;26259;50.214;18.620;2022-09-09T04:13:36;12.90;99.90
22678;DHT22;26259;50.214;18.620;2022-09-09T04:16:07;12.90;99.90
22678;DHT22;26259;50.214;18.620;2022-09-09T04:18:34;12.90;99.90
22678;DHT22;26259;50.214;18.620;2022-09-09T04:21:00;12.80;99.90
22678;DHT22;26259;50.214;18.620;2022-09-09T04:23:28;12.80;99.90
22678;DHT22;26259;50.214;18.620;2022-09-09T04:25:57;12.80;99.90
22678;DHT22;26259;50.214;18.620;2022-09-09T04:28:25;12.80;99.90
22678;DHT22;26259;50.214;18.620;2022-09-09T04:30:51;13.00;99.90
22678;DHT22;26259;50.214;18.620;2022-09-09T04:33:17;13.10;99.90
22678;DHT22;26259;50.214;18.620;2022-09-09T04:35:45;13.10;99.90
22678;DHT22;26259;50.214;18.620;2022-09-09T04:38:12;13.10;99.90
22678;DHT22;26259;50.214;18.620;2022-09-09T04:40:38;13.10;99.90
22678;DHT22;26259;50.214;18.620;2022-09-09T04:43:08;13.20;99.90
22678;DHT22;26259;50.214;18.620;2022-09-09T04:45:34;13.20;99.90
22678;DHT22;26259;50.214;18.620;2022-09-09T04:48:00;13.20;99.90
22678;DHT22;26259;50.214;18.620;2022-09-09T04:50:25;13.20;99.90
22678;DHT22;26259;50.214;18.620;2022-09-09T04:52:51;13.30;99.90
22678;DHT22;26259;50.214;18.620;2022-09-09T04:55:16;13.40;99.90
22678;DHT22;26259;50.214;18.620;2022-09-09T04:57:42;13.40;99.90
22678;DHT22;26259;50.214;18.620;2022-09-09T05:00:08;13.40;99.90
22678;DHT22;26259;50.214;18.620;2022-09-09T05:02:38;13.40;99.90
22678;DHT22;26259;50.214;18.620;2022-09-09T05:05:04;13.40;99.90
22678;DHT22;26259;50.214;18.620;2022-09-09T05:07:30;13.50;99.90
22678;DHT22;26259;50.214;18.620;2022-09-09T05:09:56;13.40;99.90
22678;DHT22;26259;50.214;18.620;2022-09-09T05:12:23;13.60;99.90
22678;DHT22;26259;50.214;18.620;2022-09-09T05:14:51;13.60;99.90
22678;DHT22;26259;50.214;18.620;2022-09-09T05:17:17;13.50;99.90
22678;DHT22;26259;50.214;18.620;2022-09-09T05:19:43;13.50;99.90
22678;DHT22;26259;50.214;18.620;2022-09-09T05:22:09;13.60;99.90
22678;DHT22;26259;50.214;18.620;2022-09-09T05:24:37;13.70;99.90
22678;DHT22;26259;50.214;18.620;2022-09-09T05:27:03;13.80;99.90
22678;DHT22;26259;50.214;18.620;2022-09-09T05:29:30;13.90;99.90
22678;DHT22;26259;50.214;18.620;2022-09-09T05:31:59;14.00;99.90
22678;DHT22;26259;50.214;18.620;2022-09-09T05:34:25;14.10;99.90
22678;DHT22;26259;50.214;18.620;2022-09-09T05:36:50;14.30;99.90
22678;DHT22;26259;50.214;18.620;2022-09-09T05:39:17;14.40;99.90
22678;DHT22;26259;50.214;18.620;2022-09-09T05:41:43;14.50;99.90
22678;DHT22;26259;50.214;18.620;2022-09-09T05:44:08;14.70;99.90
22678;DHT22;26259;50.214;18.620;2022-09-09T05:46:34;14.80;99.90
22678;DHT22;26259;50.214;18.620;2022-09-09T05:48:59;14.80;99.90
22678;DHT22;26259;50.214;18.620;2022-09-09T05:51:27;14.90;99.90
22678;DHT22;26259;50.214;18.620;2022-09-09T05:53:55;15.00;99.90
22678;DHT22;26259;50.214;18.620;2022-09-09T05:56:25;15.10;99.90
22678;DHT22;26259;50.214;18.620;2022-09-09T05:58:52;15.20;99.90
22678;DHT22;26259;50.214;18.620;2022-09-09T06:01:29;15.40;99.90
22678;DHT22;26259;50.214;18.620;2022-09-09T06:03:56;15.30;99.90
22678;DHT22;26259;50.214;18.620;2022-09-09T06:06:27;15.40;99.90
22678;DHT22;26259;50.214;18.620;2022-09-09T06:08:56;15.50;99.90
22678;DHT22;26259;50.214;18.620;2022-09-09T06:11:28;15.50;99.90
22678;DHT22;26259;50.214;18.620;2022-09-09T06:13:56;15.60;99.90
22678;DHT22;26259;50.214;18.620;2022-09-09T06:16:24;15.60;99.90
22678;DHT22;26259;50.214;18.620;2022-09-09T06:18:53;15.80;99.90
22678;DHT22;26259;50.214;18.620;2022-09-09T06:21:21;15.80;99.90
22678;DHT22;26259;50.214;18.620;2022-09-09T06:23:47;15.80;99.90
22678;DHT22;26259;50.214;18.620;2022-09-09T06:26:16;15.90;99.90
22678;DHT22;26259;50.214;18.620;2022-09-09T06:28:45;16.00;99.90
22678;DHT22;26259;50.214;18.620;2022-09-09T06:31:12;16.00;99.90
22678;DHT22;26259;50.214;18.620;2022-09-09T06:33:40;16.10;99.90
22678;DHT22;26259;50.214;18.620;2022-09-09T06:36:20;16.20;99.90
22678;DHT22;26259;50.214;18.620;2022-09-09T06:38:46;16.20;99.90
22678;DHT22;26259;50.214;18.620;2022-09-09T06:41:14;16.30;99.90
22678;DHT22;26259;50.214;18.620;2022-09-09T06:43:40;16.30;99.90
22678;DHT22;26259;50.214;18.620;2022-09-09T06:46:09;16.30;99.90
22678;DHT22;26259;50.214;18.620;2022-09-09T06:48:35;16.40;99.90
22678;DHT22;26259;50.214;18.620;2022-09-09T06:51:06;16.30;99.90
22678;DHT22;26259;50.214;18.620;2022-09-09T06:53:33;16.50;99.90
22678;DHT22;26259;50.214;18.620;2022-09-09T06:56:23;16.40;99.90
22678;DHT22;26259;50.214;18.620;2022-09-09T06:58:51;16.60;99.90
22678;DHT22;26259;50.214;18.620;2022-09-09T07:01:19;16.70;99.90
22678;DHT22;26259;50.214;18.620;2022-09-09T07:03:50;16.70;99.90
22678;DHT22;26259;50.214;18.620;2022-09-09T07:06:26;16.70;99.90
22678;DHT22;26259;50.214;18.620;2022-09-09T07:08:54;16.90;99.90
22678;DHT22;26259;50.214;18.620;2022-09-09T07:11:21;16.80;99.90
22678;DHT22;26259;50.214;18.620;2022-09-09T07:13:49;16.90;99.90
22678;DHT22;26259;50.214;18.620;2022-09-09T07:16:17;16.90;99.90
22678;DHT22;26259;50.214;18.620;2022-09-09T07:18:43;16.90;99.90
22678;DHT22;26259;50.214;18.620;2022-09-09T07:21:11;17.00;99.90
22678;DHT22;26259;50.214;18.620;2022-09-09T07:23:37;17.00;99.90
22678;DHT22;26259;50.214;18.620;2022-09-09T07:26:11;17.10;99.90
22678;DHT22;26259;50.214;18.620;2022-09-09T07:28:37;17.10;99.90
22678;DHT22;26259;50.214;18.620;2022-09-09T07:31:04;17.10;99.90
22678;DHT22;26259;50.214;18.620;2022-09-09T07:33:31;17.30;99.90
22678;DHT22;26259;50.214;18.620;2022-09-09T07:36:07;17.40;99.90
22678;DHT22;26259;50.214;18.620;2022-09-09T07:38:38;17.30;99.90
22678;DHT22;26259;50.214;18.620;2022-09-09T07:41:08;17.20;99.90
22678;DHT22;26259;50.214;18.620;2022-09-09T07:43:42;17.30;99.90
22678;DHT22;26259;50.214;18.620;2022-09-09T07:46:09;17.50;99.90
22678;DHT22;26259;50.214;18.620;2022-09-09T07:48:35;17.80;99.90
22678;DHT22;26259;50.214;18.620;2022-09-09T07:51:15;17.80;99.90
22678;DHT22;26259;50.214;18.620;2022-09-09T07:53:43;17.80;99.90
22678;DHT22;26259;50.214;18.620;2022-09-09T07:56:10;17.90;99.90
22678;DHT22;26259;50.214;18.620;2022-09-09T07:58:38;17.90;99.90
22678;DHT22;26259;50.214;18.620;2022-09-09T08:01:09;18.00;99.90
22678;DHT22;26259;50.214;18.620;2022-09-09T08:03:35;18.20;99.90
22678;DHT22;26259;50.214;18.620;2022-09-09T08:06:06;18.20;99.90
22678;DHT22;26259;50.214;18.620;2022-09-09T08:08:34;18.10;99.90
22678;DHT22;26259;50.214;18.620;2022-09-09T08:11:08;18.10;99.90
22678;DHT22;26259;50.214;18.620;2022-09-09T08:13:36;18.20;99.90
22678;DHT22;26259;50.214;18.620;2022-09-09T08:16:54;18.60;99.90
22678;DHT22;26259;50.214;18.620;2022-09-09T08:19:03;18.80;99.90
22678;DHT22;26259;50.214;18.620;2022-09-09T08:21:31;19.00;99.90
22678;DHT22;26259;50.214;18.620;2022-09-09T08:23:58;19.10;99.90
22678;DHT22;26259;50.214;18.620;2022-09-09T08:26:30;19.10;99.90
22678;DHT22;26259;50.214;18.620;2022-09-09T08:28:58;18.90;99.90
22678;DHT22;26259;50.214;18.620;2022-09-09T08:31:31;18.90;99.90
22678;DHT22;26259;50.214;18.620;2022-09-09T08:33:58;18.90;99.90
22678;DHT22;26259;50.214;18.620;2022-09-09T08:36:27;19.10;99.90
22678;DHT22;26259;50.214;18.620;2022-09-09T08:38:54;19.00;99.90
22678;DHT22;26259;50.214;18.620;2022-09-09T08:46:35;19.50;99.90
22678;DHT22;26259;50.214;18.620;2022-09-09T08:49:23;19.70;99.90
22678;DHT22;26259;50.214;18.620;2022-09-09T08:51:53;19.70;99.90
22678;DHT22;26259;50.214;18.620;2022-09-09T08:54:20;19.80;99.90
22678;DHT22;26259;50.214;18.620;2022-09-09T08:56:47;19.80;99.90
22678;DHT22;26259;50.214;18.620;2022-09-09T08:59:16;20.00;99.90
22678;DHT22;26259;50.214;18.620;2022-09-09T09:02:13;20.00;99.90
22678;DHT22;26259;50.214;18.620;2022-09-09T09:05:15;19.90;99.90
22678;DHT22;26259;50.214;18.620;2022-09-09T09:08:28;19.90;99.90
22678;DHT22;26259;50.214;18.620;2022-09-09T09:10:57;20.00;99.90
22678;DHT22;26259;50.214;18.620;2022-09-09T09:16:15;20.20;99.90
22678;DHT22;26259;50.214;18.620;2022-09-09T09:18:43;20.20;99.90
22678;DHT22;26259;50.214;18.620;2022-09-09T09:22:18;20.30;99.90
22678;DHT22;26259;50.214;18.620;2022-09-09T09:24:19;20.40;99.90
22678;DHT22;26259;50.214;18.620;2022-09-09T09:26:45;20.50;99.90
22678;DHT22;26259;50.214;18.620;2022-09-09T09:29:14;20.40;99.90
22678;DHT22;26259;50.214;18.620;2022-09-09T09:31:46;20.70;99.90
22678;DHT22;26259;50.214;18.620;2022-09-09T09:34:13;20.70;99.90
22678;DHT22;26259;50.214;18.620;2022-09-09T09:36:44;20.60;99.90
22678;DHT22;26259;50.214;18.620;2022-09-09T09:39:23;20.70;99.90
22678;DHT22;26259;50.214;18.620;2022-09-09T09:41:49;20.60;99.90
22678;DHT22;26259;50.214;18.620;2022-09-09T09:44:31;20.50;99.90
22678;DHT22;26259;50.214;18.620;2022-09-09T09:47:08;20.50;99.90
22678;DHT22;26259;50.214;18.620;2022-09-09T09:49:36;20.60;99.90
22678;DHT22;26259;50.214;18.620;2022-09-09T09:52:06;20.80;99.90
22678;DHT22;26259;50.214;18.620;2022-09-09T09:54:41;20.90;99.90
22678;DHT22;26259;50.214;18.620;2022-09-09T09:57:14;21.20;99.90
22678;DHT22;26259;50.214;18.620;2022-09-09T09:59:41;21.30;99.90
22678;DHT22;26259;50.214;18.620;2022-09-09T10:04:38;21.40;99.90
22678;DHT22;26259;50.214;18.620;2022-09-09T10:07:20;21.50;99.90
22678;DHT22;26259;50.214;18.620;2022-09-09T10:09:54;21.50;99.90
22678;DHT22;26259;50.214;18.620;2022-09-09T10:15:00;21.60;99.90
22678;DHT22;26259;50.214;18.620;2022-09-09T10:17:49;21.70;99.90
22678;DHT22;26259;50.214;18.620;2022-09-09T10:26:24;22.10;99.90
22678;DHT22;26259;50.214;18.620;2022-09-09T10:43:27;23.00;92.40
22678;DHT22;26259;50.214;18.620;2022-09-09T10:54:56;23.00;76.70
22678;DHT22;26259;50.214;18.620;2022-09-09T10:57:50;22.90;74.00
22678;DHT22;26259;50.214;18.620;2022-09-09T11:00:21;22.70;89.80
22678;DHT22;26259;50.214;18.620;2022-09-09T11:02:56;22.60;86.70
22678;DHT22;26259;50.214;18.620;2022-09-09T11:05:53;22.60;82.90
22678;DHT22;26259;50.214;18.620;2022-09-09T11:08:24;22.80;86.70
22678;DHT22;26259;50.214;18.620;2022-09-09T11:11:09;22.90;79.80
22678;DHT22;26259;50.214;18.620;2022-09-09T11:13:55;22.90;81.10
22678;DHT22;26259;50.214;18.620;2022-09-09T11:16:39;22.80;72.40
22678;DHT22;26259;50.214;18.620;2022-09-09T11:21:53;22.50;77.60
22678;DHT22;26259;50.214;18.620;2022-09-09T11:24:56;22.60;75.70
22678;DHT22;26259;50.214;18.620;2022-09-09T11:30:38;23.10;76.20
22678;DHT22;26259;50.214;18.620;2022-09-09T11:33:24;23.30;71.10
22678;DHT22;26259;50.214;18.620;2022-09-09T11:41:36;23.70;76.60
22678;DHT22;26259;50.214;18.620;2022-09-09T11:44:23;24.00;70.50
22678;DHT22;26259;50.214;18.620;2022-09-09T11:46:51;24.10;61.20
22678;DHT22;26259;50.214;18.620;2022-09-09T11:49:40;24.10;65.60
22678;DHT22;26259;50.214;18.620;2022-09-09T11:52:22;23.90;67.50
22678;DHT22;26259;50.214;18.620;2022-09-09T11:54:49;24.00;71.30
22678;DHT22;26259;50.214;18.620;2022-09-09T11:57:30;24.10;65.10
22678;DHT22;26259;50.214;18.620;2022-09-09T11:59:57;24.40;61.80
22678;DHT22;26259;50.214;18.620;2022-09-09T12:02:25;24.50;62.20
22678;DHT22;26259;50.214;18.620;2022-09-09T12:05:07;24.60;61.20
22678;DHT22;26259;50.214;18.620;2022-09-09T12:07:56;24.40;59.50
22678;DHT22;26259;50.214;18.620;2022-09-09T12:10:23;24.20;61.00
22678;DHT22;26259;50.214;18.620;2022-09-09T12:12:51;24.00;58.20
22678;DHT22;26259;50.214;18.620;2022-09-09T12:15:26;23.80;56.40
22678;DHT22;26259;50.214;18.620;2022-09-09T12:17:57;23.40;58.00
22678;DHT22;26259;50.214;18.620;2022-09-09T12:20:38;23.30;62.60
22678;DHT22;26259;50.214;18.620;2022-09-09T12:23:22;23.30;63.90
22678;DHT22;26259;50.214;18.620;2022-09-09T12:26:16;23.30;67.10
22678;DHT22;26259;50.214;18.620;2022-09-09T12:31:53;23.80;62.70
22678;DHT22;26259;50.214;18.620;2022-09-09T12:34:40;23.80;61.30
22678;DHT22;26259;50.214;18.620;2022-09-09T12:37:34;23.90;68.40
22678;DHT22;26259;50.214;18.620;2022-09-09T12:40:23;23.90;68.50
22678;DHT22;26259;50.214;18.620;2022-09-09T12:42:49;23.90;64.50
22678;DHT22;26259;50.214;18.620;2022-09-09T12:45:21;23.90;62.20
22678;DHT22;26259;50.214;18.620;2022-09-09T12:47:54;24.10;59.90
22678;DHT22;26259;50.214;18.620;2022-09-09T12:50:23;24.00;56.80
22678;DHT22;26259;50.214;18.620;2022-09-09T12:53:02;23.90;56.50
22678;DHT22;26259;50.214;18.620;2022-09-09T12:55:31;23.80;57.30
22678;DHT22;26259;50.214;18.620;2022-09-09T12:57:59;23.70;55.90
22678;DHT22;26259;50.214;18.620;2022-09-09T13:00:25;23.50;58.90
22678;DHT22;26259;50.214;18.620;2022-09-09T13:03:03;23.50;59.70
22678;DHT22;26259;50.214;18.620;2022-09-09T13:05:42;23.40;60.70
22678;DHT22;26259;50.214;18.620;2022-09-09T13:08:12;23.40;58.90
22678;DHT22;26259;50.214;18.620;2022-09-09T13:10:50;23.30;59.70
22678;DHT22;26259;50.214;18.620;2022-09-09T13:13:35;23.10;59.40
22678;DHT22;26259;50.214;18.620;2022-09-09T13:16:02;23.10;57.20
22678;DHT22;26259;50.214;18.620;2022-09-09T13:18:34;22.90;55.50
22678;DHT22;26259;50.214;18.620;2022-09-09T13:21:01;22.90;56.40
22678;DHT22;26259;50.214;18.620;2022-09-09T13:23:30;22.80;57.90
22678;DHT22;26259;50.214;18.620;2022-09-09T13:26:00;22.80;58.40
22678;DHT22;26259;50.214;18.620;2022-09-09T13:28:30;22.80;60.30
22678;DHT22;26259;50.214;18.620;2022-09-09T13:33:44;22.90;61.50
22678;DHT22;26259;50.214;18.620;2022-09-09T13:36:11;22.90;62.30
22678;DHT22;26259;50.214;18.620;2022-09-09T13:38:53;23.00;64.70
22678;DHT22;26259;50.214;18.620;2022-09-09T13:41:24;23.20;65.10
22678;DHT22;26259;50.214;18.620;2022-09-09T13:43:51;23.40;61.20
22678;DHT22;26259;50.214;18.620;2022-09-09T13:46:35;23.40;57.10
22678;DHT22;26259;50.214;18.620;2022-09-09T13:51:43;23.30;56.50
22678;DHT22;26259;50.214;18.620;2022-09-09T13:54:11;23.50;59.50
22678;DHT22;26259;50.214;18.620;2022-09-09T13:56:39;23.80;63.60
22678;DHT22;26259;50.214;18.620;2022-09-09T13:59:09;23.90;60.50
22678;DHT22;26259;50.214;18.620;2022-09-09T14:01:36;24.00;56.90
22678;DHT22;26259;50.214;18.620;2022-09-09T14:04:03;23.90;59.30
22678;DHT22;26259;50.214;18.620;2022-09-09T14:06:30;23.90;66.10
22678;DHT22;26259;50.214;18.620;2022-09-09T14:08:58;24.00;59.50
22678;DHT22;26259;50.214;18.620;2022-09-09T14:11:24;23.90;60.90
22678;DHT22;26259;50.214;18.620;2022-09-09T14:13:50;23.90;60.60
22678;DHT22;26259;50.214;18.620;2022-09-09T14:16:16;23.90;58.20
22678;DHT22;26259;50.214;18.620;2022-09-09T14:18:43;23.90;57.80
22678;DHT22;26259;50.214;18.620;2022-09-09T14:21:09;24.10;54.60
22678;DHT22;26259;50.214;18.620;2022-09-09T14:23:35;24.10;54.30
22678;DHT22;26259;50.214;18.620;2022-09-09T14:26:01;24.20;55.00
22678;DHT22;26259;50.214;18.620;2022-09-09T14:28:26;24.20;58.40
22678;DHT22;26259;50.214;18.620;2022-09-09T14:30:53;24.00;54.50
22678;DHT22;26259;50.214;18.620;2022-09-09T14:33:19;23.80;55.20
22678;DHT22;26259;50.214;18.620;2022-09-09T14:35:47;23.70;55.80
22678;DHT22;26259;50.214;18.620;2022-09-09T14:38:14;23.60;55.50
22678;DHT22;26259;50.214;18.620;2022-09-09T14:40:39;23.60;58.50
22678;DHT22;26259;50.214;18.620;2022-09-09T14:43:05;23.50;57.80
22678;DHT22;26259;50.214;18.620;2022-09-09T14:45:31;23.50;55.20
22678;DHT22;26259;50.214;18.620;2022-09-09T14:47:57;23.40;55.50
22678;DHT22;26259;50.214;18.620;2022-09-09T14:50:23;23.40;57.40
22678;DHT22;26259;50.214;18.620;2022-09-09T14:52:49;23.30;60.20
22678;DHT22;26259;50.214;18.620;2022-09-09T14:55:16;23.30;63.90
22678;DHT22;26259;50.214;18.620;2022-09-09T14:57:42;23.10;70.40
22678;DHT22;26259;50.214;18.620;2022-09-09T15:00:09;22.90;77.50
22678;DHT22;26259;50.214;18.620;2022-09-09T15:02:35;22.90;81.20
22678;DHT22;26259;50.214;18.620;2022-09-09T15:05:00;22.70;85.80
22678;DHT22;26259;50.214;18.620;2022-09-09T15:07:27;22.50;90.90
22678;DHT22;26259;50.214;18.620;2022-09-09T15:09:54;22.40;94.90
22678;DHT22;26259;50.214;18.620;2022-09-09T15:12:20;22.20;95.90
22678;DHT22;26259;50.214;18.620;2022-09-09T15:14:46;22.10;97.70
22678;DHT22;26259;50.214;18.620;2022-09-09T15:17:12;22.00;99.90
22678;DHT22;26259;50.214;18.620;2022-09-09T15:19:38;21.90;99.90
22678;DHT22;26259;50.214;18.620;2022-09-09T15:22:04;21.70;99.90
22678;DHT22;26259;50.214;18.620;2022-09-09T15:24:31;21.60;99.90
22678;DHT22;26259;50.214;18.620;2022-09-09T15:26:57;21.50;99.90
22678;DHT22;26259;50.214;18.620;2022-09-09T15:29:23;21.40;99.90
22678;DHT22;26259;50.214;18.620;2022-09-09T15:31:49;21.40;99.90
22678;DHT22;26259;50.214;18.620;2022-09-09T15:34:14;21.40;99.90
22678;DHT22;26259;50.214;18.620;2022-09-09T15:36:44;21.50;99.90
22678;DHT22;26259;50.214;18.620;2022-09-09T15:39:17;21.50;99.90
22678;DHT22;26259;50.214;18.620;2022-09-09T15:41:46;21.60;99.90
22678;DHT22;26259;50.214;18.620;2022-09-09T15:44:13;21.50;99.90
22678;DHT22;26259;50.214;18.620;2022-09-09T15:47:05;21.50;99.90
22678;DHT22;26259;50.214;18.620;2022-09-09T15:49:31;21.30;99.90
22678;DHT22;26259;50.214;18.620;2022-09-09T15:51:59;21.30;99.90
22678;DHT22;26259;50.214;18.620;2022-09-09T15:54:32;21.30;99.90
22678;DHT22;26259;50.214;18.620;2022-09-09T15:57:01;21.20;99.90
22678;DHT22;26259;50.214;18.620;2022-09-09T15:59:28;21.00;99.90
22678;DHT22;26259;50.214;18.620;2022-09-09T16:01:55;20.90;99.90
22678;DHT22;26259;50.214;18.620;2022-09-09T16:04:22;20.70;99.90
22678;DHT22;26259;50.214;18.620;2022-09-09T16:06:52;20.60;99.90
22678;DHT22;26259;50.214;18.620;2022-09-09T16:09:19;20.40;99.90
22678;DHT22;26259;50.214;18.620;2022-09-09T16:11:45;20.30;99.90
22678;DHT22;26259;50.214;18.620;2022-09-09T16:14:12;20.20;99.90
22678;DHT22;26259;50.214;18.620;2022-09-09T16:16:38;20.20;99.90
22678;DHT22;26259;50.214;18.620;2022-09-09T16:19:06;20.10;99.90
22678;DHT22;26259;50.214;18.620;2022-09-09T16:21:35;20.00;99.90
22678;DHT22;26259;50.214;18.620;2022-09-09T16:24:01;19.90;99.90
22678;DHT22;26259;50.214;18.620;2022-09-09T16:26:30;19.80;99.90
22678;DHT22;26259;50.214;18.620;2022-09-09T16:28:56;19.70;99.90
22678;DHT22;26259;50.214;18.620;2022-09-09T16:31:24;19.50;99.90
22678;DHT22;26259;50.214;18.620;2022-09-09T16:33:51;19.40;99.90
22678;DHT22;26259;50.214;18.620;2022-09-09T16:36:21;19.20;99.90
22678;DHT22;26259;50.214;18.620;2022-09-09T16:38:48;19.20;99.90
22678;DHT22;26259;50.214;18.620;2022-09-09T16:41:16;19.10;99.90
22678;DHT22;26259;50.214;18.620;2022-09-09T16:43:42;19.00;99.90
22678;DHT22;26259;50.214;18.620;2022-09-09T16:48:39;18.80;99.90
22678;DHT22;26259;50.214;18.620;2022-09-09T16:51:07;18.60;99.90
22678;DHT22;26259;50.214;18.620;2022-09-09T16:53:34;18.50;99.90
22678;DHT22;26259;50.214;18.620;2022-09-09T16:56:20;18.40;99.90
22678;DHT22;26259;50.214;18.620;2022-09-09T16:58:56;18.20;99.90
22678;DHT22;26259;50.214;18.620;2022-09-09T17:01:24;18.10;99.90
22678;DHT22;26259;50.214;18.620;2022-09-09T17:03:57;18.00;99.90
22678;DHT22;26259;50.214;18.620;2022-09-09T17:06:23;17.90;99.90
22678;DHT22;26259;50.214;18.620;2022-09-09T17:08:54;17.90;99.90
22678;DHT22;26259;50.214;18.620;2022-09-09T17:11:20;17.80;99.90
22678;DHT22;26259;50.214;18.620;2022-09-09T17:13:47;17.80;99.90